< < Back
Terminal Aerodrome Forecast


Current Version              Previous Versions:   1  2  3  4  5  6  7  8  9  

Terminal Aerodrome Forecast

456
FTUS42 KILM 240541 CCA
TAFILM
TAF COR
KILM 240541Z 2406/2506 03003KT P6SM SKC
     FM241400 04008KT P6SM SCT045
     FM242000 08010KT P6SM SCT050
     FM250000 06005KT P6SM SKC=

Latest METAR

966
SAUS70 KWBC 242100 RRF
MTRILM
METAR KILM 242053Z 05012KT 10SM CLR 29/17 A3019 RMK AO2 SLP222 T02940167
56018


USA.gov is the U.S. government's official web portal to all federal, state and local government web resources and services.